sensor_id;sensor_type;location;lat;lon;timestamp;temperature;humidity
70246;SHT30;57637;49.272;8.590;2022-07-29T00:00:23;21.59;59.18
70246;SHT30;57637;49.272;8.590;2022-07-29T00:02:48;21.60;59.65
70246;SHT30;57637;49.272;8.590;2022-07-29T00:05:13;21.61;60.30
70246;SHT30;57637;49.272;8.590;2022-07-29T00:07:39;21.66;60.78
70246;SHT30;57637;49.272;8.590;2022-07-29T00:10:05;21.59;61.43
70246;SHT30;57637;49.272;8.590;2022-07-29T00:12:31;21.56;62.10
70246;SHT30;57637;49.272;8.590;2022-07-29T00:14:56;21.46;62.68
70246;SHT30;57637;49.272;8.590;2022-07-29T00:17:22;21.40;63.51
70246;SHT30;57637;49.272;8.590;2022-07-29T00:19:48;21.39;63.96
70246;SHT30;57637;49.272;8.590;2022-07-29T00:22:13;21.37;64.29
70246;SHT30;57637;49.272;8.590;2022-07-29T00:24:42;21.39;64.59
70246;SHT30;57637;49.272;8.590;2022-07-29T00:27:07;21.42;64.61
70246;SHT30;57637;49.272;8.590;2022-07-29T00:29:32;21.40;64.76
70246;SHT30;57637;49.272;8.590;2022-07-29T00:31:58;21.43;64.91
70246;SHT30;57637;49.272;8.590;2022-07-29T00:34:23;21.42;65.20
70246;SHT30;57637;49.272;8.590;2022-07-29T00:37:07;21.43;65.41
70246;SHT30;57637;49.272;8.590;2022-07-29T00:39:32;21.40;65.59
70246;SHT30;57637;49.272;8.590;2022-07-29T00:41:58;21.37;65.83
70246;SHT30;57637;49.272;8.590;2022-07-29T00:44:23;21.36;66.02
70246;SHT30;57637;49.272;8.590;2022-07-29T00:46:51;21.35;66.02
70246;SHT30;57637;49.272;8.590;2022-07-29T00:49:17;21.29;66.40
70246;SHT30;57637;49.272;8.590;2022-07-29T00:51:42;21.30;66.33
70246;SHT30;57637;49.272;8.590;2022-07-29T00:54:08;21.27;66.56
70246;SHT30;57637;49.272;8.590;2022-07-29T00:56:37;21.20;66.86
70246;SHT30;57637;49.272;8.590;2022-07-29T00:59:02;21.22;67.01
70246;SHT30;57637;49.272;8.590;2022-07-29T01:01:28;21.22;66.95
70246;SHT30;57637;49.272;8.590;2022-07-29T01:03:53;21.19;67.09
70246;SHT30;57637;49.272;8.590;2022-07-29T01:06:19;21.15;67.28
70246;SHT30;57637;49.272;8.590;2022-07-29T01:08:45;21.08;67.63
70246;SHT30;57637;49.272;8.590;2022-07-29T01:11:12;21.06;67.67
70246;SHT30;57637;49.272;8.590;2022-07-29T01:13:39;21.02;68.04
70246;SHT30;57637;49.272;8.590;2022-07-29T01:16:10;21.02;68.09
70246;SHT30;57637;49.272;8.590;2022-07-29T01:18:49;20.99;68.20
70246;SHT30;57637;49.272;8.590;2022-07-29T01:27:26;20.84;69.02
70246;SHT30;57637;49.272;8.590;2022-07-29T01:30:06;20.76;69.37
70246;SHT30;57637;49.272;8.590;2022-07-29T01:32:33;20.76;69.31
70246;SHT30;57637;49.272;8.590;2022-07-29T01:37:47;20.76;69.61
70246;SHT30;57637;49.272;8.590;2022-07-29T01:42:51;20.74;69.84
70246;SHT30;57637;49.272;8.590;2022-07-29T01:45:20;20.72;69.94
70246;SHT30;57637;49.272;8.590;2022-07-29T01:47:56;20.75;70.03
70246;SHT30;57637;49.272;8.590;2022-07-29T01:50:37;20.72;70.15
70246;SHT30;57637;49.272;8.590;2022-07-29T01:53:09;20.72;70.61
70246;SHT30;57637;49.272;8.590;2022-07-29T01:55:42;20.72;70.54
70246;SHT30;57637;49.272;8.590;2022-07-29T01:58:11;20.74;70.73
70246;SHT30;57637;49.272;8.590;2022-07-29T02:00:38;20.72;71.02
70246;SHT30;57637;49.272;8.590;2022-07-29T02:03:09;20.68;71.10
70246;SHT30;57637;49.272;8.590;2022-07-29T02:05:37;20.71;71.07
70246;SHT30;57637;49.272;8.590;2022-07-29T02:08:06;20.69;71.37
70246;SHT30;57637;49.272;8.590;2022-07-29T02:10:33;20.68;71.53
70246;SHT30;57637;49.272;8.590;2022-07-29T02:12:59;20.68;71.57
70246;SHT30;57637;49.272;8.590;2022-07-29T02:15:27;20.64;71.83
70246;SHT30;57637;49.272;8.590;2022-07-29T02:18:02;20.61;72.03
70246;SHT30;57637;49.272;8.590;2022-07-29T02:20:31;20.63;72.07
70246;SHT30;57637;49.272;8.590;2022-07-29T02:22:57;20.61;72.21
70246;SHT30;57637;49.272;8.590;2022-07-29T02:25:24;20.57;72.40
70246;SHT30;57637;49.272;8.590;2022-07-29T02:27:51;20.48;72.78
70246;SHT30;57637;49.272;8.590;2022-07-29T02:30:18;20.44;72.90
70246;SHT30;57637;49.272;8.590;2022-07-29T02:32:48;20.43;72.96
70246;SHT30;57637;49.272;8.590;2022-07-29T02:35:18;20.40;73.04
70246;SHT30;57637;49.272;8.590;2022-07-29T02:37:46;20.41;73.18
70246;SHT30;57637;49.272;8.590;2022-07-29T02:40:33;20.37;73.24
70246;SHT30;57637;49.272;8.590;2022-07-29T02:43:01;20.37;73.37
70246;SHT30;57637;49.272;8.590;2022-07-29T02:45:29;20.31;73.45
70246;SHT30;57637;49.272;8.590;2022-07-29T02:47:54;20.33;73.71
70246;SHT30;57637;49.272;8.590;2022-07-29T02:50:27;20.30;73.73
70246;SHT30;57637;49.272;8.590;2022-07-29T02:52:59;20.31;73.87
70246;SHT30;57637;49.272;8.590;2022-07-29T02:55:32;20.30;73.97
70246;SHT30;57637;49.272;8.590;2022-07-29T02:58:33;20.28;74.00
70246;SHT30;57637;49.272;8.590;2022-07-29T03:01:03;20.27;74.17
70246;SHT30;57637;49.272;8.590;2022-07-29T03:03:36;20.20;74.25
70246;SHT30;57637;49.272;8.590;2022-07-29T03:06:03;20.23;74.15
70246;SHT30;57637;49.272;8.590;2022-07-29T03:08:31;20.21;74.40
70246;SHT30;57637;49.272;8.590;2022-07-29T03:10:57;20.18;74.41
70246;SHT30;57637;49.272;8.590;2022-07-29T03:13:23;20.17;74.63
70246;SHT30;57637;49.272;8.590;2022-07-29T03:15:50;20.14;74.53
70246;SHT30;57637;49.272;8.590;2022-07-29T03:18:15;20.14;74.62
70246;SHT30;57637;49.272;8.590;2022-07-29T03:20:41;20.12;74.78
70246;SHT30;57637;49.272;8.590;2022-07-29T03:23:08;20.12;74.64
70246;SHT30;57637;49.272;8.590;2022-07-29T03:25:33;20.12;74.67
70246;SHT30;57637;49.272;8.590;2022-07-29T03:27:59;20.12;74.68
70246;SHT30;57637;49.272;8.590;2022-07-29T03:30:25;20.12;74.91
70246;SHT30;57637;49.272;8.590;2022-07-29T03:32:50;20.09;74.84
70246;SHT30;57637;49.272;8.590;2022-07-29T03:35:16;20.07;74.78
70246;SHT30;57637;49.272;8.590;2022-07-29T03:37:44;20.04;74.86
70246;SHT30;57637;49.272;8.590;2022-07-29T03:40:11;19.98;75.30
70246;SHT30;57637;49.272;8.590;2022-07-29T03:42:42;19.96;75.43
70246;SHT30;57637;49.272;8.590;2022-07-29T03:45:10;19.94;75.30
70246;SHT30;57637;49.272;8.590;2022-07-29T03:47:39;19.93;75.31
70246;SHT30;57637;49.272;8.590;2022-07-29T03:50:08;19.92;75.46
70246;SHT30;57637;49.272;8.590;2022-07-29T03:52:36;19.84;75.79
70246;SHT30;57637;49.272;8.590;2022-07-29T03:55:03;19.73;76.01
70246;SHT30;57637;49.272;8.590;2022-07-29T03:57:28;19.65;76.07
70246;SHT30;57637;49.272;8.590;2022-07-29T03:59:56;19.65;75.88
70246;SHT30;57637;49.272;8.590;2022-07-29T04:02:22;19.58;76.06
70246;SHT30;57637;49.272;8.590;2022-07-29T04:04:48;19.56;76.06
70246;SHT30;57637;49.272;8.590;2022-07-29T04:07:14;19.53;76.04
70246;SHT30;57637;49.272;8.590;2022-07-29T04:09:40;19.52;76.00
70246;SHT30;57637;49.272;8.590;2022-07-29T04:12:06;19.46;76.13
70246;SHT30;57637;49.272;8.590;2022-07-29T04:14:32;19.48;76.14
70246;SHT30;57637;49.272;8.590;2022-07-29T04:17:00;19.41;76.14
70246;SHT30;57637;49.272;8.590;2022-07-29T04:19:26;19.39;76.16
70246;SHT30;57637;49.272;8.590;2022-07-29T04:21:52;19.33;76.29
70246;SHT30;57637;49.272;8.590;2022-07-29T04:24:17;19.35;75.95
70246;SHT30;57637;49.272;8.590;2022-07-29T04:26:42;19.28;75.97
70246;SHT30;57637;49.272;8.590;2022-07-29T04:29:08;19.31;75.78
70246;SHT30;57637;49.272;8.590;2022-07-29T04:31:33;19.23;75.83
70246;SHT30;57637;49.272;8.590;2022-07-29T04:33:59;19.18;75.88
70246;SHT30;57637;49.272;8.590;2022-07-29T04:36:24;19.16;75.91
70246;SHT30;57637;49.272;8.590;2022-07-29T04:38:49;19.16;75.83
70246;SHT30;57637;49.272;8.590;2022-07-29T04:41:15;19.35;75.17
70246;SHT30;57637;49.272;8.590;2022-07-29T04:43:40;19.29;74.98
70246;SHT30;57637;49.272;8.590;2022-07-29T04:46:06;19.42;74.88
70246;SHT30;57637;49.272;8.590;2022-07-29T04:48:32;19.52;73.81
70246;SHT30;57637;49.272;8.590;2022-07-29T04:50:57;19.84;72.71
70246;SHT30;57637;49.272;8.590;2022-07-29T04:53:23;19.63;72.89
70246;SHT30;57637;49.272;8.590;2022-07-29T04:55:49;19.93;71.79
70246;SHT30;57637;49.272;8.590;2022-07-29T04:58:14;19.92;71.86
70246;SHT30;57637;49.272;8.590;2022-07-29T05:00:40;20.18;70.62
70246;SHT30;57637;49.272;8.590;2022-07-29T05:03:05;20.37;70.05
70246;SHT30;57637;49.272;8.590;2022-07-29T05:05:31;20.38;69.66
70246;SHT30;57637;49.272;8.590;2022-07-29T05:07:56;20.88;68.48
70246;SHT30;57637;49.272;8.590;2022-07-29T05:10:22;20.88;67.93
70246;SHT30;57637;49.272;8.590;2022-07-29T05:12:50;20.49;69.07
70246;SHT30;57637;49.272;8.590;2022-07-29T05:15:16;20.79;68.20
70246;SHT30;57637;49.272;8.590;2022-07-29T05:17:42;20.71;67.89
70246;SHT30;57637;49.272;8.590;2022-07-29T05:20:08;20.89;67.53
70246;SHT30;57637;49.272;8.590;2022-07-29T05:22:33;21.05;68.06
70246;SHT30;57637;49.272;8.590;2022-07-29T05:24:59;21.54;66.31
70246;SHT30;57637;49.272;8.590;2022-07-29T05:27:24;22.08;64.31
70246;SHT30;57637;49.272;8.590;2022-07-29T05:29:50;21.98;65.18
70246;SHT30;57637;49.272;8.590;2022-07-29T05:32:15;21.60;67.01
70246;SHT30;57637;49.272;8.590;2022-07-29T05:34:41;21.61;67.18
70246;SHT30;57637;49.272;8.590;2022-07-29T05:37:07;21.46;67.75
70246;SHT30;57637;49.272;8.590;2022-07-29T05:39:32;21.53;68.13
70246;SHT30;57637;49.272;8.590;2022-07-29T05:41:57;21.70;67.72
70246;SHT30;57637;49.272;8.590;2022-07-29T05:44:23;21.91;66.84
70246;SHT30;57637;49.272;8.590;2022-07-29T05:46:49;22.59;65.43
70246;SHT30;57637;49.272;8.590;2022-07-29T05:49:14;23.31;64.14
70246;SHT30;57637;49.272;8.590;2022-07-29T05:51:39;23.85;62.16
70246;SHT30;57637;49.272;8.590;2022-07-29T05:54:05;22.51;66.26
70246;SHT30;57637;49.272;8.590;2022-07-29T05:56:31;23.03;66.39
70246;SHT30;57637;49.272;8.590;2022-07-29T05:58:56;23.51;64.04
70246;SHT30;57637;49.272;8.590;2022-07-29T06:01:21;23.09;65.98
70246;SHT30;57637;49.272;8.590;2022-07-29T06:03:47;23.64;64.42
70246;SHT30;57637;49.272;8.590;2022-07-29T06:06:12;23.02;66.39
70246;SHT30;57637;49.272;8.590;2022-07-29T06:08:38;23.12;66.48
70246;SHT30;57637;49.272;8.590;2022-07-29T06:11:05;22.93;67.29
70246;SHT30;57637;49.272;8.590;2022-07-29T06:13:31;22.79;67.13
70246;SHT30;57637;49.272;8.590;2022-07-29T06:15:57;23.61;64.90
70246;SHT30;57637;49.272;8.590;2022-07-29T06:18:22;24.30;62.73
70246;SHT30;57637;49.272;8.590;2022-07-29T06:20:52;23.84;64.82
70246;SHT30;57637;49.272;8.590;2022-07-29T06:23:18;23.65;64.67
70246;SHT30;57637;49.272;8.590;2022-07-29T06:25:45;23.03;66.84
70246;SHT30;57637;49.272;8.590;2022-07-29T06:28:11;23.44;65.09
70246;SHT30;57637;49.272;8.590;2022-07-29T06:30:36;23.91;64.15
70246;SHT30;57637;49.272;8.590;2022-07-29T06:33:02;24.16;63.40
70246;SHT30;57637;49.272;8.590;2022-07-29T06:35:28;24.59;62.31
70246;SHT30;57637;49.272;8.590;2022-07-29T06:37:54;24.72;61.31
70246;SHT30;57637;49.272;8.590;2022-07-29T06:40:19;24.88;60.76
70246;SHT30;57637;49.272;8.590;2022-07-29T06:43:03;24.82;61.25
70246;SHT30;57637;49.272;8.590;2022-07-29T06:45:29;24.79;60.87
70246;SHT30;57637;49.272;8.590;2022-07-29T06:47:54;24.84;60.67
70246;SHT30;57637;49.272;8.590;2022-07-29T06:50:20;25.03;60.35
70246;SHT30;57637;49.272;8.590;2022-07-29T06:52:46;25.16;59.91
70246;SHT30;57637;49.272;8.590;2022-07-29T06:55:12;25.69;59.31
70246;SHT30;57637;49.272;8.590;2022-07-29T06:57:38;25.57;59.43
70246;SHT30;57637;49.272;8.590;2022-07-29T07:00:03;25.57;59.39
70246;SHT30;57637;49.272;8.590;2022-07-29T07:02:30;25.64;58.95
70246;SHT30;57637;49.272;8.590;2022-07-29T07:04:55;25.75;58.53
70246;SHT30;57637;49.272;8.590;2022-07-29T07:07:21;25.92;58.08
70246;SHT30;57637;49.272;8.590;2022-07-29T07:09:46;25.99;57.72
70246;SHT30;57637;49.272;8.590;2022-07-29T07:12:11;25.78;58.63
70246;SHT30;57637;49.272;8.590;2022-07-29T07:14:37;25.86;58.30
70246;SHT30;57637;49.272;8.590;2022-07-29T07:17:02;25.96;58.08
70246;SHT30;57637;49.272;8.590;2022-07-29T07:19:28;25.88;58.35
70246;SHT30;57637;49.272;8.590;2022-07-29T07:21:54;26.23;57.83
70246;SHT30;57637;49.272;8.590;2022-07-29T07:24:20;26.84;55.84
70246;SHT30;57637;49.272;8.590;2022-07-29T07:26:45;27.05;55.14
70246;SHT30;57637;49.272;8.590;2022-07-29T07:29:11;27.32;54.51
70246;SHT30;57637;49.272;8.590;2022-07-29T07:31:37;27.65;53.79
70246;SHT30;57637;49.272;8.590;2022-07-29T07:34:03;27.66;53.50
70246;SHT30;57637;49.272;8.590;2022-07-29T07:36:28;28.00;52.89
70246;SHT30;57637;49.272;8.590;2022-07-29T07:38:53;28.57;52.02
70246;SHT30;57637;49.272;8.590;2022-07-29T07:41:19;28.74;51.68
70246;SHT30;57637;49.272;8.590;2022-07-29T07:43:45;28.74;51.16
70246;SHT30;57637;49.272;8.590;2022-07-29T07:46:10;28.79;50.78
70246;SHT30;57637;49.272;8.590;2022-07-29T07:48:36;28.72;51.24
70246;SHT30;57637;49.272;8.590;2022-07-29T07:51:01;28.24;51.96
70246;SHT30;57637;49.272;8.590;2022-07-29T07:53:27;27.65;53.33
70246;SHT30;57637;49.272;8.590;2022-07-29T07:55:54;27.39;54.23
70246;SHT30;57637;49.272;8.590;2022-07-29T07:58:20;27.62;53.90
70246;SHT30;57637;49.272;8.590;2022-07-29T08:00:45;27.81;53.67
70246;SHT30;57637;49.272;8.590;2022-07-29T08:03:11;28.56;53.15
70246;SHT30;57637;49.272;8.590;2022-07-29T08:05:38;29.14;50.66
70246;SHT30;57637;49.272;8.590;2022-07-29T08:08:04;29.65;49.41
70246;SHT30;57637;49.272;8.590;2022-07-29T08:10:30;29.97;48.66
70246;SHT30;57637;49.272;8.590;2022-07-29T08:13:14;30.33;48.33
70246;SHT30;57637;49.272;8.590;2022-07-29T08:15:40;30.31;47.60
70246;SHT30;57637;49.272;8.590;2022-07-29T08:18:10;29.32;49.23
70246;SHT30;57637;49.272;8.590;2022-07-29T08:20:37;29.83;48.34
70246;SHT30;57637;49.272;8.590;2022-07-29T08:23:04;29.19;50.03
70246;SHT30;57637;49.272;8.590;2022-07-29T08:25:33;29.09;50.73
70246;SHT30;57637;49.272;8.590;2022-07-29T08:28:00;28.90;51.24
70246;SHT30;57637;49.272;8.590;2022-07-29T08:30:25;28.40;51.95
70246;SHT30;57637;49.272;8.590;2022-07-29T08:32:51;28.14;52.71
70246;SHT30;57637;49.272;8.590;2022-07-29T08:35:18;28.28;52.75
70246;SHT30;57637;49.272;8.590;2022-07-29T08:37:44;28.32;52.70
70246;SHT30;57637;49.272;8.590;2022-07-29T08:40:10;28.69;52.60
70246;SHT30;57637;49.272;8.590;2022-07-29T08:42:36;29.02;51.89
70246;SHT30;57637;49.272;8.590;2022-07-29T08:45:02;28.79;52.13
70246;SHT30;57637;49.272;8.590;2022-07-29T08:47:29;28.57;52.29
70246;SHT30;57637;49.272;8.590;2022-07-29T08:49:54;28.57;52.13
70246;SHT30;57637;49.272;8.590;2022-07-29T08:52:20;29.18;51.23
70246;SHT30;57637;49.272;8.590;2022-07-29T08:54:46;29.46;50.67
70246;SHT30;57637;49.272;8.590;2022-07-29T08:57:14;29.97;49.67
70246;SHT30;57637;49.272;8.590;2022-07-29T08:59:42;29.91;48.92
70246;SHT30;57637;49.272;8.590;2022-07-29T09:02:12;29.30;49.69
70246;SHT30;57637;49.272;8.590;2022-07-29T09:04:44;29.52;50.00
70246;SHT30;57637;49.272;8.590;2022-07-29T09:07:10;29.19;50.33
70246;SHT30;57637;49.272;8.590;2022-07-29T09:09:40;29.49;49.70
70246;SHT30;57637;49.272;8.590;2022-07-29T09:12:05;29.76;49.76
70246;SHT30;57637;49.272;8.590;2022-07-29T09:14:33;29.48;49.79
70246;SHT30;57637;49.272;8.590;2022-07-29T09:16:58;29.22;49.77
70246;SHT30;57637;49.272;8.590;2022-07-29T09:21:54;28.63;50.03
70246;SHT30;57637;49.272;8.590;2022-07-29T09:24:43;28.41;49.81
70246;SHT30;57637;49.272;8.590;2022-07-29T09:30:01;28.78;50.09
70246;SHT30;57637;49.272;8.590;2022-07-29T09:32:31;28.43;49.91
70246;SHT30;57637;49.272;8.590;2022-07-29T09:35:20;27.85;49.96
70246;SHT30;57637;49.272;8.590;2022-07-29T09:37:48;28.09;50.28
70246;SHT30;57637;49.272;8.590;2022-07-29T09:40:15;28.88;49.62
70246;SHT30;57637;49.272;8.590;2022-07-29T09:42:43;29.20;49.21
70246;SHT30;57637;49.272;8.590;2022-07-29T09:45:09;29.69;48.13
70246;SHT30;57637;49.272;8.590;2022-07-29T09:47:45;29.77;47.80
70246;SHT30;57637;49.272;8.590;2022-07-29T09:50:13;29.81;46.78
70246;SHT30;57637;49.272;8.590;2022-07-29T09:52:49;29.09;46.81
70246;SHT30;57637;49.272;8.590;2022-07-29T09:55:16;29.14;47.17
70246;SHT30;57637;49.272;8.590;2022-07-29T09:57:42;29.39;47.39
70246;SHT30;57637;49.272;8.590;2022-07-29T10:00:10;29.50;47.49
70246;SHT30;57637;49.272;8.590;2022-07-29T10:02:38;29.65;47.01
70246;SHT30;57637;49.272;8.590;2022-07-29T10:05:06;29.67;47.06
70246;SHT30;57637;49.272;8.590;2022-07-29T10:12:58;28.27;48.10
70246;SHT30;57637;49.272;8.590;2022-07-29T10:15:29;28.48;47.88
70246;SHT30;57637;49.272;8.590;2022-07-29T10:17:57;28.77;47.56
70246;SHT30;57637;49.272;8.590;2022-07-29T10:20:23;29.11;46.74
70246;SHT30;57637;49.272;8.590;2022-07-29T10:22:52;28.32;46.61
70246;SHT30;57637;49.272;8.590;2022-07-29T10:25:19;29.04;46.20
70246;SHT30;57637;49.272;8.590;2022-07-29T10:27:48;28.60;47.10
70246;SHT30;57637;49.272;8.590;2022-07-29T10:30:19;28.67;46.49
70246;SHT30;57637;49.272;8.590;2022-07-29T10:44:15;30.03;45.14
70246;SHT30;57637;49.272;8.590;2022-07-29T10:46:43;29.30;44.40
70246;SHT30;57637;49.272;8.590;2022-07-29T10:59:38;29.76;43.74
70246;SHT30;57637;49.272;8.590;2022-07-29T11:02:40;29.46;43.89
70246;SHT30;57637;49.272;8.590;2022-07-29T11:07:25;29.67;44.08
70246;SHT30;57637;49.272;8.590;2022-07-29T11:31:16;29.26;43.86
70246;SHT30;57637;49.272;8.590;2022-07-29T11:34:19;29.55;43.44
70246;SHT30;57637;49.272;8.590;2022-07-29T11:39:34;30.34;42.11
70246;SHT30;57637;49.272;8.590;2022-07-29T11:44:54;30.44;42.19
70246;SHT30;57637;49.272;8.590;2022-07-29T11:47:30;30.74;41.08
70246;SHT30;57637;49.272;8.590;2022-07-29T11:49:56;30.96;41.31
70246;SHT30;57637;49.272;8.590;2022-07-29T11:52:22;30.86;40.81
70246;SHT30;57637;49.272;8.590;2022-07-29T11:54:49;30.74;40.48
70246;SHT30;57637;49.272;8.590;2022-07-29T11:57:16;29.93;41.76
70246;SHT30;57637;49.272;8.590;2022-07-29T11:59:43;30.25;41.80
70246;SHT30;57637;49.272;8.590;2022-07-29T12:02:10;29.56;43.04
70246;SHT30;57637;49.272;8.590;2022-07-29T12:07:18;30.44;42.37
70246;SHT30;57637;49.272;8.590;2022-07-29T12:09:50;30.62;41.84
70246;SHT30;57637;49.272;8.590;2022-07-29T12:12:17;30.57;40.76
70246;SHT30;57637;49.272;8.590;2022-07-29T12:14:42;30.75;41.23
70246;SHT30;57637;49.272;8.590;2022-07-29T12:17:33;30.91;41.14
70246;SHT30;57637;49.272;8.590;2022-07-29T12:20:02;30.91;41.60
70246;SHT30;57637;49.272;8.590;2022-07-29T12:22:31;30.54;42.15
70246;SHT30;57637;49.272;8.590;2022-07-29T12:25:09;30.09;41.69
70246;SHT30;57637;49.272;8.590;2022-07-29T12:27:36;30.55;41.08
70246;SHT30;57637;49.272;8.590;2022-07-29T12:30:13;30.54;40.75
70246;SHT30;57637;49.272;8.590;2022-07-29T12:32:47;30.71;40.49
70246;SHT30;57637;49.272;8.590;2022-07-29T12:35:19;30.10;40.61
70246;SHT30;57637;49.272;8.590;2022-07-29T12:37:46;30.35;40.31
70246;SHT30;57637;49.272;8.590;2022-07-29T12:40:14;30.54;39.82
70246;SHT30;57637;49.272;8.590;2022-07-29T12:42:49;30.54;39.96
70246;SHT30;57637;49.272;8.590;2022-07-29T12:45:30;30.74;39.55
70246;SHT30;57637;49.272;8.590;2022-07-29T12:47:56;30.79;39.53
70246;SHT30;57637;49.272;8.590;2022-07-29T12:50:22;30.96;39.18
70246;SHT30;57637;49.272;8.590;2022-07-29T12:52:47;31.22;39.05
70246;SHT30;57637;49.272;8.590;2022-07-29T12:55:13;30.95;38.95
70246;SHT30;57637;49.272;8.590;2022-07-29T12:57:46;30.64;39.50
70246;SHT30;57637;49.272;8.590;2022-07-29T13:00:13;30.79;39.64
70246;SHT30;57637;49.272;8.590;2022-07-29T13:02:40;30.89;39.84
70246;SHT30;57637;49.272;8.590;2022-07-29T13:05:07;30.88;39.53
70246;SHT30;57637;49.272;8.590;2022-07-29T13:07:33;31.33;39.39
70246;SHT30;57637;49.272;8.590;2022-07-29T13:10:09;31.25;38.91
70246;SHT30;57637;49.272;8.590;2022-07-29T13:12:36;30.88;39.99
70246;SHT30;57637;49.272;8.590;2022-07-29T13:15:12;31.26;39.87
70246;SHT30;57637;49.272;8.590;2022-07-29T13:17:40;31.35;39.48
70246;SHT30;57637;49.272;8.590;2022-07-29T13:20:08;31.19;40.17
70246;SHT30;57637;49.272;8.590;2022-07-29T13:22:37;31.23;40.26
70246;SHT30;57637;49.272;8.590;2022-07-29T13:25:04;30.85;40.61
70246;SHT30;57637;49.272;8.590;2022-07-29T13:27:32;30.79;40.68
70246;SHT30;57637;49.272;8.590;2022-07-29T13:29:58;30.81;40.78
70246;SHT30;57637;49.272;8.590;2022-07-29T13:32:26;30.31;41.41
70246;SHT30;57637;49.272;8.590;2022-07-29T13:34:54;30.57;40.96
70246;SHT30;57637;49.272;8.590;2022-07-29T13:37:20;30.41;40.92
70246;SHT30;57637;49.272;8.590;2022-07-29T13:39:46;30.00;40.98
70246;SHT30;57637;49.272;8.590;2022-07-29T13:42:12;29.62;41.56
70246;SHT30;57637;49.272;8.590;2022-07-29T13:44:38;29.48;41.95
70246;SHT30;57637;49.272;8.590;2022-07-29T13:47:05;29.45;42.22
70246;SHT30;57637;49.272;8.590;2022-07-29T13:49:31;29.81;41.77
70246;SHT30;57637;49.272;8.590;2022-07-29T13:51:57;30.18;41.64
70246;SHT30;57637;49.272;8.590;2022-07-29T13:54:22;30.07;41.15
70246;SHT30;57637;49.272;8.590;2022-07-29T13:56:49;30.27;40.20
70246;SHT30;57637;49.272;8.590;2022-07-29T13:59:15;30.58;39.19
70246;SHT30;57637;49.272;8.590;2022-07-29T14:01:40;30.28;38.75
70246;SHT30;57637;49.272;8.590;2022-07-29T14:04:07;30.00;40.17
70246;SHT30;57637;49.272;8.590;2022-07-29T14:06:33;29.83;39.61
70246;SHT30;57637;49.272;8.590;2022-07-29T14:08:58;29.72;39.87
70246;SHT30;57637;49.272;8.590;2022-07-29T14:11:23;29.62;40.93
70246;SHT30;57637;49.272;8.590;2022-07-29T14:13:49;29.80;40.99
70246;SHT30;57637;49.272;8.590;2022-07-29T14:16:15;29.90;40.08
70246;SHT30;57637;49.272;8.590;2022-07-29T14:18:40;30.13;40.00
70246;SHT30;57637;49.272;8.590;2022-07-29T14:21:05;30.13;39.98
70246;SHT30;57637;49.272;8.590;2022-07-29T14:23:31;30.06;39.75
70246;SHT30;57637;49.272;8.590;2022-07-29T14:25:56;30.34;40.11
70246;SHT30;57637;49.272;8.590;2022-07-29T14:28:24;30.14;39.62
70246;SHT30;57637;49.272;8.590;2022-07-29T14:30:50;30.25;39.82
70246;SHT30;57637;49.272;8.590;2022-07-29T14:33:15;30.23;39.05
70246;SHT30;57637;49.272;8.590;2022-07-29T14:35:42;30.38;40.24
70246;SHT30;57637;49.272;8.590;2022-07-29T14:38:08;30.14;40.42
70246;SHT30;57637;49.272;8.590;2022-07-29T14:40:34;30.14;40.89
70246;SHT30;57637;49.272;8.590;2022-07-29T14:42:59;30.41;40.86
70246;SHT30;57637;49.272;8.590;2022-07-29T14:45:24;30.58;40.17
70246;SHT30;57637;49.272;8.590;2022-07-29T14:47:50;30.76;39.85
70246;SHT30;57637;49.272;8.590;2022-07-29T14:50:15;30.91;39.66
70246;SHT30;57637;49.272;8.590;2022-07-29T14:52:42;31.05;37.16
70246;SHT30;57637;49.272;8.590;2022-07-29T14:55:08;31.05;36.82
70246;SHT30;57637;49.272;8.590;2022-07-29T14:57:34;31.13;36.56
70246;SHT30;57637;49.272;8.590;2022-07-29T14:59:59;31.27;36.37
70246;SHT30;57637;49.272;8.590;2022-07-29T15:02:24;31.47;36.24
70246;SHT30;57637;49.272;8.590;2022-07-29T15:04:50;31.51;35.87
70246;SHT30;57637;49.272;8.590;2022-07-29T15:07:15;31.60;35.52
70246;SHT30;57637;49.272;8.590;2022-07-29T15:09:41;31.51;35.40
70246;SHT30;57637;49.272;8.590;2022-07-29T15:12:10;31.47;35.27
70246;SHT30;57637;49.272;8.590;2022-07-29T15:14:36;31.62;35.36
70246;SHT30;57637;49.272;8.590;2022-07-29T15:17:01;31.70;34.88
70246;SHT30;57637;49.272;8.590;2022-07-29T15:19:27;31.80;35.15
70246;SHT30;57637;49.272;8.590;2022-07-29T15:21:52;31.84;35.59
70246;SHT30;57637;49.272;8.590;2022-07-29T15:24:17;31.93;35.06
70246;SHT30;57637;49.272;8.590;2022-07-29T15:26:44;31.91;34.33
70246;SHT30;57637;49.272;8.590;2022-07-29T15:29:09;31.78;34.74
70246;SHT30;57637;49.272;8.590;2022-07-29T15:31:35;31.51;35.43
70246;SHT30;57637;49.272;8.590;2022-07-29T15:34:00;31.39;35.07
70246;SHT30;57637;49.272;8.590;2022-07-29T15:36:25;31.35;35.17
70246;SHT30;57637;49.272;8.590;2022-07-29T15:38:52;31.43;35.22
70246;SHT30;57637;49.272;8.590;2022-07-29T15:41:18;31.45;35.11
70246;SHT30;57637;49.272;8.590;2022-07-29T15:43:44;31.35;35.32
70246;SHT30;57637;49.272;8.590;2022-07-29T15:46:13;31.45;34.98
70246;SHT30;57637;49.272;8.590;2022-07-29T15:48:57;31.62;34.85
70246;SHT30;57637;49.272;8.590;2022-07-29T15:51:23;31.59;34.59
70246;SHT30;57637;49.272;8.590;2022-07-29T15:53:49;31.74;34.35
70246;SHT30;57637;49.272;8.590;2022-07-29T15:56:14;31.66;34.56
70246;SHT30;57637;49.272;8.590;2022-07-29T15:58:39;31.72;34.75
70246;SHT30;57637;49.272;8.590;2022-07-29T16:01:05;31.77;34.59
70246;SHT30;57637;49.272;8.590;2022-07-29T16:03:30;31.39;34.63
70246;SHT30;57637;49.272;8.590;2022-07-29T16:05:55;31.23;34.85
70246;SHT30;57637;49.272;8.590;2022-07-29T16:08:21;30.96;34.81
70246;SHT30;57637;49.272;8.590;2022-07-29T16:10:46;30.85;34.62
70246;SHT30;57637;49.272;8.590;2022-07-29T16:13:12;30.82;35.34
70246;SHT30;57637;49.272;8.590;2022-07-29T16:15:37;30.84;35.30
70246;SHT30;57637;49.272;8.590;2022-07-29T16:18:02;30.69;34.92
70246;SHT30;57637;49.272;8.590;2022-07-29T16:20:28;30.35;35.97
70246;SHT30;57637;49.272;8.590;2022-07-29T16:22:54;30.41;35.66
70246;SHT30;57637;49.272;8.590;2022-07-29T16:25:19;30.38;35.86
70246;SHT30;57637;49.272;8.590;2022-07-29T16:27:45;30.24;35.76
70246;SHT30;57637;49.272;8.590;2022-07-29T16:30:10;30.23;35.67
70246;SHT30;57637;49.272;8.590;2022-07-29T16:32:36;30.23;35.39
70246;SHT30;57637;49.272;8.590;2022-07-29T16:35:01;30.34;35.52
70246;SHT30;57637;49.272;8.590;2022-07-29T16:37:29;30.40;35.58
70246;SHT30;57637;49.272;8.590;2022-07-29T16:39:57;30.45;35.32
70246;SHT30;57637;49.272;8.590;2022-07-29T16:42:23;30.42;35.39
70246;SHT30;57637;49.272;8.590;2022-07-29T16:44:48;30.49;35.01
70246;SHT30;57637;49.272;8.590;2022-07-29T16:47:14;30.45;34.73